^^
TXWeather Station Historical Data
Daily Summary for January 21, 2022 Units:  English    Metric   Both
Daily Weekly Monthly Yearly Custom
  High: Low: Average:
Temperature: 52.0 °F 34.0 °F 40.6 °F
Dew Point: 28.0 °F 18.0 °F 23.2 °F
Humidity: 71% 32% 51%
Wind Speed: 15mph 2mph 8.4mph
Wind Gust: 16mph - -
Wind- - South
Pressure: 30.5 in 30.3 in -
Precipitation: 0.000 in    
Historical Graphs
 
 
Tabular Data for January 21, 2022
Time Temperature Dew Point Pressure Wind Wind Speed Wind Gust Humidity Rainfall Rate (Hourly) solar
00:04 36.0 °F 28.0 °F 30.4 in NNW 11 mph 14 mph 71% 0.000 in 0.00 W/m2
00:09 36.0 °F 27.0 °F 30.4 in North 13 mph 13 mph 70% 0.000 in 0.00 W/m2
00:14 36.0 °F 27.0 °F 30.4 in NNW 10 mph 13 mph 70% 0.000 in 0.00 W/m2
00:19 36.0 °F 27.0 °F 30.4 in North 10 mph 11 mph 70% 0.000 in 0.00 W/m2
00:24 36.0 °F 27.0 °F 30.4 in North 11 mph 11 mph 69% 0.000 in 0.00 W/m2
00:29 36.0 °F 27.0 °F 30.4 in NNW 10 mph 11 mph 68% 0.000 in 0.00 W/m2
00:34 36.0 °F 27.0 °F 30.4 in NNW 10 mph 10 mph 68% 0.000 in 0.00 W/m2
00:39 36.0 °F 26.0 °F 30.4 in North 9 mph 10 mph 67% 0.000 in 0.00 W/m2
00:44 36.0 °F 26.0 °F 30.4 in NNW 8 mph 9 mph 67% 0.000 in 0.00 W/m2
00:49 36.0 °F 26.0 °F 30.4 in North 9 mph 9 mph 67% 0.000 in 0.00 W/m2
00:54 36.0 °F 26.0 °F 30.4 in North 8 mph 9 mph 67% 0.000 in 0.00 W/m2
00:59 36.0 °F 26.0 °F 30.4 in North 12 mph 12 mph 67% 0.000 in 0.00 W/m2
01:04 36.0 °F 26.0 °F 30.4 in North 8 mph 10 mph 67% 0.000 in 0.00 W/m2
01:09 36.0 °F 26.0 °F 30.4 in NNW 6 mph 6 mph 67% 0.000 in 0.00 W/m2
01:14 36.0 °F 26.0 °F 30.4 in North 8 mph 10 mph 67% 0.000 in 0.00 W/m2
01:19 36.0 °F 26.0 °F 30.4 in NNW 8 mph 8 mph 67% 0.000 in 0.00 W/m2
01:24 36.0 °F 26.0 °F 30.4 in NNW 8 mph 9 mph 66% 0.000 in 0.00 W/m2
01:29 36.0 °F 26.0 °F 30.4 in North 6 mph 9 mph 66% 0.000 in 0.00 W/m2
01:34 37.0 °F 26.0 °F 30.4 in NNW 8 mph 8 mph 66% 0.000 in 0.00 W/m2
01:39 37.0 °F 26.0 °F 30.4 in NNW 9 mph 9 mph 65% 0.000 in 0.00 W/m2
01:44 37.0 °F 26.0 °F 30.4 in North 11 mph 11 mph 65% 0.000 in 0.00 W/m2
01:49 37.0 °F 26.0 °F 30.4 in NNW 10 mph 11 mph 65% 0.000 in 0.00 W/m2
01:54 37.0 °F 26.0 °F 30.4 in NNW 11 mph 11 mph 64% 0.000 in 0.00 W/m2
01:59 37.0 °F 26.0 °F 30.4 in North 8 mph 8 mph 64% 0.000 in 0.00 W/m2
02:04 37.0 °F 26.0 °F 30.4 in NNW 10 mph 11 mph 64% 0.000 in 0.00 W/m2
02:09 37.0 °F 25.0 °F 30.4 in North 7 mph 9 mph 63% 0.000 in 0.00 W/m2
02:14 37.0 °F 25.0 °F 30.4 in North 8 mph 9 mph 63% 0.000 in 0.00 W/m2
02:19 37.0 °F 25.0 °F 30.4 in North 10 mph 10 mph 63% 0.000 in 0.00 W/m2
02:24 37.0 °F 25.0 °F 30.4 in North 10 mph 10 mph 63% 0.000 in 0.00 W/m2
02:29 37.0 °F 25.0 °F 30.4 in North 12 mph 12 mph 63% 0.000 in 0.00 W/m2
02:34 37.0 °F 25.0 °F 30.4 in NNW 9 mph 12 mph 62% 0.000 in 0.00 W/m2
02:39 37.0 °F 25.0 °F 30.4 in NNW 8 mph 9 mph 62% 0.000 in 0.00 W/m2
02:44 37.0 °F 25.0 °F 30.4 in NNW 6 mph 10 mph 62% 0.000 in 0.00 W/m2
02:49 37.0 °F 25.0 °F 30.4 in NNW 8 mph 10 mph 62% 0.000 in 0.00 W/m2
02:54 37.0 °F 25.0 °F 30.4 in North 10 mph 11 mph 62% 0.000 in 0.00 W/m2
02:59 37.0 °F 25.0 °F 30.4 in NNW 9 mph 9 mph 62% 0.000 in 0.00 W/m2
03:04 37.0 °F 24.0 °F 30.4 in NNW 13 mph 13 mph 61% 0.000 in 0.00 W/m2
03:09 37.0 °F 24.0 °F 30.4 in NNW 10 mph 12 mph 61% 0.000 in 0.00 W/m2
03:14 37.0 °F 24.0 °F 30.4 in NNW 14 mph 14 mph 60% 0.000 in 0.00 W/m2
03:19 37.0 °F 24.0 °F 30.4 in NNW 12 mph 14 mph 60% 0.000 in 0.00 W/m2
03:24 36.0 °F 23.0 °F 30.4 in NW 10 mph 10 mph 59% 0.000 in 0.00 W/m2
03:29 36.0 °F 23.0 °F 30.4 in NNW 11 mph 11 mph 59% 0.000 in 0.00 W/m2
03:34 36.0 °F 23.0 °F 30.4 in NNW 11 mph 12 mph 59% 0.000 in 0.00 W/m2
03:39 36.0 °F 23.0 °F 30.4 in NNW 9 mph 12 mph 59% 0.000 in 0.00 W/m2
03:44 36.0 °F 23.0 °F 30.4 in NNW 7 mph 9 mph 59% 0.000 in 0.00 W/m2
03:49 36.0 °F 23.0 °F 30.4 in NNW 11 mph 11 mph 59% 0.000 in 0.00 W/m2
03:54 36.0 °F 23.0 °F 30.4 in NNW 9 mph 9 mph 59% 0.000 in 0.00 W/m2
03:59 36.0 °F 23.0 °F 30.4 in NNW 8 mph 9 mph 59% 0.000 in 0.00 W/m2
04:04 36.0 °F 23.0 °F 30.4 in NNW 9 mph 9 mph 59% 0.000 in 0.00 W/m2
04:09 36.0 °F 23.0 °F 30.4 in NNW 7 mph 8 mph 59% 0.000 in 0.00 W/m2
04:14 36.0 °F 23.0 °F 30.4 in NNW 10 mph 10 mph 59% 0.000 in 0.00 W/m2
04:19 36.0 °F 23.0 °F 30.4 in North 6 mph 8 mph 59% 0.000 in 0.00 W/m2
04:24 36.0 °F 23.0 °F 30.4 in North 8 mph 9 mph 59% 0.000 in 0.00 W/m2
04:29 36.0 °F 23.0 °F 30.4 in NNW 11 mph 11 mph 59% 0.000 in 0.00 W/m2
04:34 36.0 °F 23.0 °F 30.4 in NNW 9 mph 9 mph 59% 0.000 in 0.00 W/m2
04:39 36.0 °F 23.0 °F 30.4 in NNW 9 mph 10 mph 59% 0.000 in 0.00 W/m2
04:44 36.0 °F 23.0 °F 30.4 in NNW 8 mph 9 mph 59% 0.000 in 0.00 W/m2
04:49 36.0 °F 23.0 °F 30.4 in NNW 9 mph 10 mph 58% 0.000 in 0.00 W/m2
04:54 36.0 °F 23.0 °F 30.4 in NNW 10 mph 10 mph 58% 0.000 in 0.00 W/m2
04:59 36.0 °F 23.0 °F 30.4 in NNW 10 mph 11 mph 58% 0.000 in 0.00 W/m2
05:04 36.0 °F 23.0 °F 30.4 in NNW 10 mph 11 mph 58% 0.000 in 0.00 W/m2
05:09 36.0 °F 23.0 °F 30.4 in NNW 10 mph 14 mph 58% 0.000 in 0.00 W/m2
05:14 36.0 °F 23.0 °F 30.4 in NNW 11 mph 14 mph 58% 0.000 in 0.00 W/m2
05:19 36.0 °F 22.0 °F 30.4 in NNW 13 mph 14 mph 57% 0.000 in 0.00 W/m2
05:24 36.0 °F 21.0 °F 30.4 in NNW 12 mph 12 mph 56% 0.000 in 0.00 W/m2
05:29 36.0 °F 21.0 °F 30.4 in NNW 10 mph 11 mph 56% 0.000 in 0.00 W/m2
05:34 35.0 °F 21.0 °F 30.4 in NNW 12 mph 12 mph 56% 0.000 in 0.00 W/m2
05:39 35.0 °F 21.0 °F 30.4 in NNW 10 mph 10 mph 56% 0.000 in 0.00 W/m2
05:44 35.0 °F 21.0 °F 30.4 in NNW 9 mph 10 mph 56% 0.000 in 0.00 W/m2
05:49 35.0 °F 21.0 °F 30.4 in NNW 8 mph 9 mph 56% 0.000 in 0.00 W/m2
05:54 35.0 °F 21.0 °F 30.4 in NNW 9 mph 9 mph 56% 0.000 in 0.00 W/m2
05:59 35.0 °F 21.0 °F 30.4 in North 10 mph 10 mph 56% 0.000 in 0.00 W/m2
06:04 35.0 °F 21.0 °F 30.4 in NNW 13 mph 13 mph 55% 0.000 in 0.00 W/m2
06:09 35.0 °F 21.0 °F 30.4 in North 10 mph 13 mph 55% 0.000 in 0.00 W/m2
06:14 35.0 °F 21.0 °F 30.4 in North 12 mph 12 mph 55% 0.000 in 0.00 W/m2
06:19 35.0 °F 21.0 °F 30.4 in North 10 mph 14 mph 55% 0.000 in 0.00 W/m2
06:24 35.0 °F 21.0 °F 30.4 in North 11 mph 14 mph 55% 0.000 in 0.00 W/m2
06:29 35.0 °F 21.0 °F 30.4 in NNW 11 mph 11 mph 55% 0.000 in 0.00 W/m2
06:34 35.0 °F 21.0 °F 30.4 in NNW 8 mph 10 mph 55% 0.000 in 0.00 W/m2
06:39 35.0 °F 22.0 °F 30.4 in North 8 mph 11 mph 58% 0.000 in 0.00 W/m2
06:44 35.0 °F 22.0 °F 30.4 in NNW 9 mph 9 mph 58% 0.000 in 0.00 W/m2
06:49 35.0 °F 22.0 °F 30.4 in NNW 11 mph 15 mph 58% 0.000 in 0.00 W/m2
06:54 35.0 °F 21.0 °F 30.4 in North 12 mph 12 mph 57% 0.000 in 0.00 W/m2
06:59 35.0 °F 21.0 °F 30.4 in North 8 mph 10 mph 57% 0.000 in 0.00 W/m2
07:04 35.0 °F 21.0 °F 30.4 in North 11 mph 11 mph 57% 0.000 in 0.00 W/m2
07:09 35.0 °F 21.0 °F 30.4 in NNW 11 mph 11 mph 57% 0.000 in 0.00 W/m2
07:14 35.0 °F 21.0 °F 30.4 in North 12 mph 12 mph 57% 0.000 in 0.00 W/m2
07:19 34.0 °F 21.0 °F 30.4 in NNW 10 mph 12 mph 57% 0.000 in 0.00 W/m2
07:24 34.0 °F 21.0 °F 30.4 in North 10 mph 12 mph 57% 0.000 in 0.00 W/m2
07:29 34.0 °F 21.0 °F 30.4 in North 11 mph 11 mph 57% 0.000 in 0.00 W/m2
07:34 34.0 °F 21.0 °F 30.4 in North 9 mph 9 mph 57% 0.000 in 5.00 W/m2
07:39 34.0 °F 21.0 °F 30.4 in North 7 mph 9 mph 57% 0.000 in 9.00 W/m2
07:44 34.0 °F 20.0 °F 30.4 in NNW 10 mph 10 mph 57% 0.000 in 14.00 W/m2
07:49 34.0 °F 20.0 °F 30.4 in NNW 6 mph 7 mph 57% 0.000 in 18.00 W/m2
07:54 34.0 °F 20.0 °F 30.4 in NNW 9 mph 9 mph 57% 0.000 in 21.00 W/m2
07:59 34.0 °F 21.0 °F 30.4 in North 8 mph 9 mph 58% 0.000 in 21.00 W/m2
08:04 34.0 °F 21.0 °F 30.4 in North 9 mph 9 mph 58% 0.000 in 23.00 W/m2
08:09 34.0 °F 21.0 °F 30.4 in North 8 mph 9 mph 58% 0.000 in 30.00 W/m2
08:14 34.0 °F 21.0 °F 30.4 in North 8 mph 8 mph 58% 0.000 in 40.00 W/m2
08:19 34.0 °F 21.0 °F 30.4 in North 9 mph 10 mph 58% 0.000 in 42.00 W/m2
08:24 34.0 °F 20.0 °F 30.4 in North 10 mph 10 mph 57% 0.000 in 44.00 W/m2
08:29 34.0 °F 20.0 °F 30.4 in North 10 mph 10 mph 56% 0.000 in 49.00 W/m2
08:34 34.0 °F 20.0 °F 30.5 in North 11 mph 11 mph 55% 0.000 in 60.00 W/m2
08:39 34.0 °F 20.0 °F 30.5 in North 12 mph 14 mph 55% 0.000 in 63.00 W/m2
08:44 34.0 °F 19.0 °F 30.5 in North 10 mph 12 mph 54% 0.000 in 63.00 W/m2
08:49 34.0 °F 20.0 °F 30.5 in North 11 mph 11 mph 55% 0.000 in 70.00 W/m2
08:54 34.0 °F 20.0 °F 30.5 in NNW 10 mph 10 mph 55% 0.000 in 79.00 W/m2
08:59 34.0 °F 20.0 °F 30.5 in North 12 mph 12 mph 55% 0.000 in 81.00 W/m2
09:04 34.0 °F 19.0 °F 30.5 in North 15 mph 15 mph 53% 0.000 in 88.00 W/m2
09:09 34.0 °F 18.0 °F 30.5 in NNE 11 mph 13 mph 52% 0.000 in 98.00 W/m2
09:14 34.0 °F 18.0 °F 30.5 in NNE 13 mph 13 mph 52% 0.000 in 113.00 W/m2
09:19 34.0 °F 18.0 °F 30.5 in NNE 9 mph 13 mph 52% 0.000 in 123.00 W/m2
09:24 34.0 °F 19.0 °F 30.5 in North 8 mph 9 mph 53% 0.000 in 121.00 W/m2
09:29 35.0 °F 20.0 °F 30.5 in North 6 mph 8 mph 55% 0.000 in 120.00 W/m2
09:34 35.0 °F 21.0 °F 30.5 in NNW 7 mph 8 mph 56% 0.000 in 127.00 W/m2
09:39 35.0 °F 21.0 °F 30.5 in North 9 mph 9 mph 56% 0.000 in 142.00 W/m2
09:44 35.0 °F 21.0 °F 30.5 in North 8 mph 8 mph 56% 0.000 in 162.00 W/m2
09:49 35.0 °F 21.0 °F 30.5 in NNW 9 mph 9 mph 56% 0.000 in 165.00 W/m2
09:54 35.0 °F 21.0 °F 30.5 in North 10 mph 10 mph 56% 0.000 in 162.00 W/m2
09:59 35.0 °F 20.0 °F 30.5 in NNE 11 mph 11 mph 54% 0.000 in 207.00 W/m2
10:04 35.0 °F 20.0 °F 30.5 in NNE 9 mph 10 mph 54% 0.000 in 211.00 W/m2
10:09 35.0 °F 21.0 °F 30.5 in North 12 mph 12 mph 55% 0.000 in 211.00 W/m2
10:14 35.0 °F 20.0 °F 30.5 in North 10 mph 12 mph 53% 0.000 in 200.00 W/m2
10:19 35.0 °F 20.0 °F 30.5 in North 13 mph 13 mph 53% 0.000 in 163.00 W/m2
10:24 35.0 °F 19.0 °F 30.5 in North 12 mph 13 mph 52% 0.000 in 244.00 W/m2
10:29 35.0 °F 20.0 °F 30.5 in North 10 mph 11 mph 53% 0.000 in 362.00 W/m2
10:34 36.0 °F 21.0 °F 30.5 in North 13 mph 13 mph 53% 0.000 in 487.00 W/m2
10:39 37.0 °F 21.0 °F 30.5 in NNE 12 mph 14 mph 53% 0.000 in 508.00 W/m2
10:44 37.0 °F 21.0 °F 30.5 in North 13 mph 14 mph 52% 0.000 in 522.00 W/m2
10:49 38.0 °F 22.0 °F 30.5 in North 13 mph 15 mph 52% 0.000 in 522.00 W/m2
10:54 38.0 °F 21.0 °F 30.5 in North 14 mph 16 mph 50% 0.000 in 603.00 W/m2
10:59 39.0 °F 21.0 °F 30.5 in North 12 mph 13 mph 51% 0.000 in 628.00 W/m2
11:04 39.0 °F 22.0 °F 30.5 in NNE 11 mph 11 mph 49% 0.000 in 631.00 W/m2
11:09 39.0 °F 22.0 °F 30.5 in North 12 mph 13 mph 49% 0.000 in 642.00 W/m2
11:14 39.0 °F 22.0 °F 30.5 in NNW 10 mph 10 mph 49% 0.000 in 629.00 W/m2
11:19 40.0 °F 22.0 °F 30.5 in NNE 12 mph 12 mph 49% 0.000 in 703.00 W/m2
11:24 40.0 °F 22.0 °F 30.5 in North 12 mph 12 mph 49% 0.000 in 703.00 W/m2
11:29 40.0 °F 21.0 °F 30.5 in NNW 10 mph 10 mph 47% 0.000 in 510.00 W/m2
11:34 41.0 °F 23.0 °F 30.5 in North 10 mph 11 mph 48% 0.000 in 708.00 W/m2
11:39 42.0 °F 23.0 °F 30.5 in NNW 12 mph 12 mph 47% 0.000 in 714.00 W/m2
11:44 42.0 °F 21.0 °F 30.5 in NNW 11 mph 12 mph 44% 0.000 in 693.00 W/m2
11:49 42.0 °F 21.0 °F 30.5 in NNW 11 mph 11 mph 44% 0.000 in 682.00 W/m2
11:54 42.0 °F 23.0 °F 30.5 in North 10 mph 11 mph 45% 0.000 in 684.00 W/m2
11:59 43.0 °F 22.0 °F 30.5 in North 10 mph 11 mph 44% 0.000 in 687.00 W/m2
12:04 43.0 °F 23.0 °F 30.4 in NNE 12 mph 12 mph 45% 0.000 in 691.00 W/m2
12:09 44.0 °F 22.0 °F 30.4 in North 10 mph 11 mph 42% 0.000 in 694.00 W/m2
12:14 45.0 °F 23.0 °F 30.4 in North 11 mph 14 mph 42% 0.000 in 698.00 W/m2
12:19 45.0 °F 23.0 °F 30.4 in North 13 mph 13 mph 42% 0.000 in 700.00 W/m2
12:24 45.0 °F 23.0 °F 30.4 in North 10 mph 13 mph 41% 0.000 in 675.00 W/m2
12:29 45.0 °F 23.0 °F 30.4 in NNE 13 mph 15 mph 41% 0.000 in 701.00 W/m2
12:34 45.0 °F 23.0 °F 30.4 in North 14 mph 14 mph 40% 0.000 in 703.00 W/m2
12:39 46.0 °F 22.0 °F 30.4 in NNE 12 mph 12 mph 39% 0.000 in 705.00 W/m2
12:44 46.0 °F 22.0 °F 30.4 in North 12 mph 13 mph 39% 0.000 in 708.00 W/m2
12:49 46.0 °F 22.0 °F 30.4 in NNW 9 mph 13 mph 39% 0.000 in 673.00 W/m2
12:54 47.0 °F 23.0 °F 30.4 in North 9 mph 10 mph 39% 0.000 in 698.00 W/m2
12:59 47.0 °F 24.0 °F 30.4 in North 12 mph 14 mph 39% 0.000 in 701.00 W/m2
13:04 48.0 °F 24.0 °F 30.4 in NNW 11 mph 14 mph 39% 0.000 in 700.00 W/m2
13:09 48.0 °F 23.0 °F 30.4 in NNW 9 mph 9 mph 37% 0.000 in 693.00 W/m2
13:14 48.0 °F 23.0 °F 30.4 in NNW 12 mph 12 mph 38% 0.000 in 687.00 W/m2
13:19 48.0 °F 22.0 °F 30.4 in NNW 12 mph 12 mph 36% 0.000 in 684.00 W/m2
13:24 48.0 °F 23.0 °F 30.4 in NNW 14 mph 14 mph 37% 0.000 in 682.00 W/m2
13:29 48.0 °F 23.0 °F 30.4 in NNW 12 mph 12 mph 36% 0.000 in 677.00 W/m2
13:34 48.0 °F 22.0 °F 30.4 in NNW 12 mph 13 mph 35% 0.000 in 675.00 W/m2
13:39 49.0 °F 23.0 °F 30.4 in North 12 mph 12 mph 36% 0.000 in 661.00 W/m2
13:44 49.0 °F 24.0 °F 30.4 in NNW 13 mph 13 mph 37% 0.000 in 661.00 W/m2
13:49 49.0 °F 24.0 °F 30.4 in NNW 10 mph 10 mph 37% 0.000 in 654.00 W/m2
13:54 50.0 °F 23.0 °F 30.4 in North 13 mph 13 mph 35% 0.000 in 645.00 W/m2
13:59 50.0 °F 23.0 °F 30.4 in North 15 mph 15 mph 34% 0.000 in 642.00 W/m2
14:04 50.0 °F 23.0 °F 30.4 in NNW 13 mph 14 mph 34% 0.000 in 633.00 W/m2
14:09 50.0 °F 23.0 °F 30.4 in North 13 mph 14 mph 34% 0.000 in 626.00 W/m2
14:14 50.0 °F 24.0 °F 30.4 in North 12 mph 14 mph 35% 0.000 in 617.00 W/m2
14:19 51.0 °F 24.0 °F 30.4 in NNW 11 mph 14 mph 35% 0.000 in 610.00 W/m2
14:24 51.0 °F 23.0 °F 30.4 in NNW 11 mph 11 mph 34% 0.000 in 599.00 W/m2
14:29 51.0 °F 23.0 °F 30.4 in North 13 mph 15 mph 33% 0.000 in 591.00 W/m2
14:34 51.0 °F 22.0 °F 30.4 in NNE 11 mph 12 mph 32% 0.000 in 582.00 W/m2
14:39 51.0 °F 23.0 °F 30.4 in NNE 12 mph 13 mph 33% 0.000 in 570.00 W/m2
14:44 51.0 °F 23.0 °F 30.4 in North 11 mph 12 mph 32% 0.000 in 561.00 W/m2
14:49 51.0 °F 23.0 °F 30.4 in North 12 mph 12 mph 33% 0.000 in 552.00 W/m2
14:54 51.0 °F 23.0 °F 30.4 in North 14 mph 14 mph 33% 0.000 in 540.00 W/m2
14:59 51.0 °F 23.0 °F 30.4 in North 11 mph 11 mph 33% 0.000 in 524.00 W/m2
15:04 51.0 °F 23.0 °F 30.4 in North 9 mph 11 mph 32% 0.000 in 512.00 W/m2
15:09 52.0 °F 23.0 °F 30.4 in NNW 14 mph 14 mph 33% 0.000 in 499.00 W/m2
15:14 51.0 °F 23.0 °F 30.4 in North 12 mph 14 mph 33% 0.000 in 487.00 W/m2
15:19 52.0 °F 24.0 °F 30.4 in North 10 mph 11 mph 34% 0.000 in 475.00 W/m2
15:24 52.0 °F 25.0 °F 30.4 in NNE 10 mph 11 mph 34% 0.000 in 459.00 W/m2
15:29 52.0 °F 24.0 °F 30.4 in NNE 9 mph 10 mph 33% 0.000 in 446.00 W/m2
15:34 52.0 °F 24.0 °F 30.4 in North 10 mph 11 mph 33% 0.000 in 431.00 W/m2
15:39 52.0 °F 24.0 °F 30.4 in North 10 mph 10 mph 33% 0.000 in 418.00 W/m2
15:44 52.0 °F 24.0 °F 30.3 in NNE 9 mph 9 mph 33% 0.000 in 401.00 W/m2
15:49 52.0 °F 24.0 °F 30.3 in North 11 mph 12 mph 34% 0.000 in 385.00 W/m2
15:54 52.0 °F 24.0 °F 30.4 in North 11 mph 11 mph 34% 0.000 in 369.00 W/m2
15:59 51.0 °F 24.0 °F 30.4 in North 9 mph 11 mph 34% 0.000 in 357.00 W/m2
16:04 51.0 °F 24.0 °F 30.4 in North 11 mph 12 mph 34% 0.000 in 339.00 W/m2
16:09 51.0 °F 25.0 °F 30.4 in North 11 mph 11 mph 35% 0.000 in 325.00 W/m2
16:14 51.0 °F 25.0 °F 30.4 in NNE 12 mph 12 mph 35% 0.000 in 306.00 W/m2
16:19 51.0 °F 24.0 °F 30.4 in NNE 9 mph 9 mph 35% 0.000 in 290.00 W/m2
16:24 51.0 °F 24.0 °F 30.4 in NNE 7 mph 8 mph 35% 0.000 in 271.00 W/m2
16:29 51.0 °F 24.0 °F 30.3 in NE 9 mph 10 mph 35% 0.000 in 130.00 W/m2
16:34 51.0 °F 24.0 °F 30.3 in NE 7 mph 7 mph 35% 0.000 in 77.00 W/m2
16:39 51.0 °F 24.0 °F 30.3 in NE 8 mph 8 mph 35% 0.000 in 62.00 W/m2
16:44 51.0 °F 24.0 °F 30.3 in North 9 mph 11 mph 35% 0.000 in 49.00 W/m2
16:49 51.0 °F 24.0 °F 30.3 in NNE 5 mph 8 mph 35% 0.000 in 32.00 W/m2
16:54 50.0 °F 24.0 °F 30.4 in NNE 6 mph 9 mph 36% 0.000 in 30.00 W/m2
16:59 50.0 °F 24.0 °F 30.4 in NNE 8 mph 8 mph 36% 0.000 in 25.00 W/m2
17:04 50.0 °F 24.0 °F 30.4 in NE 7 mph 8 mph 36% 0.000 in 33.00 W/m2
17:09 50.0 °F 24.0 °F 30.4 in NNE 8 mph 8 mph 36% 0.000 in 39.00 W/m2
17:14 50.0 °F 24.0 °F 30.4 in NE 8 mph 8 mph 36% 0.000 in 26.00 W/m2
17:19 50.0 °F 24.0 °F 30.4 in ENE 3 mph 4 mph 37% 0.000 in 32.00 W/m2
17:24 49.0 °F 24.0 °F 30.4 in NE 6 mph 6 mph 37% 0.000 in 26.00 W/m2
17:29 49.0 °F 24.0 °F 30.4 in NE 5 mph 5 mph 37% 0.000 in 14.00 W/m2
17:34 49.0 °F 24.0 °F 30.4 in NE 5 mph 5 mph 38% 0.000 in 12.00 W/m2
17:39 48.0 °F 24.0 °F 30.4 in ENE 2 mph 3 mph 38% 0.000 in 11.00 W/m2
17:44 48.0 °F 24.0 °F 30.4 in NE 4 mph 4 mph 39% 0.000 in 9.00 W/m2
17:49 48.0 °F 24.0 °F 30.4 in NE 3 mph 3 mph 40% 0.000 in 5.00 W/m2
17:54 48.0 °F 24.0 °F 30.4 in NE 6 mph 6 mph 40% 0.000 in 0.00 W/m2
17:59 47.0 °F 23.0 °F 30.4 in NNE 8 mph 8 mph 39% 0.000 in 0.00 W/m2
18:04 47.0 °F 24.0 °F 30.4 in NNE 5 mph 6 mph 40% 0.000 in 0.00 W/m2
18:09 46.0 °F 23.0 °F 30.4 in NNE 5 mph 5 mph 40% 0.000 in 0.00 W/m2
18:14 46.0 °F 24.0 °F 30.4 in NE 6 mph 6 mph 41% 0.000 in 0.00 W/m2
18:19 46.0 °F 24.0 °F 30.4 in NE 3 mph 4 mph 41% 0.000 in 0.00 W/m2
18:24 46.0 °F 24.0 °F 30.4 in ENE 4 mph 4 mph 42% 0.000 in 0.00 W/m2
18:29 46.0 °F 24.0 °F 30.4 in NE 2 mph 4 mph 42% 0.000 in 0.00 W/m2
18:34 45.0 °F 24.0 °F 30.4 in NE 2 mph 2 mph 43% 0.000 in 0.00 W/m2
18:39 45.0 °F 24.0 °F 30.4 in NNE 3 mph 4 mph 44% 0.000 in 0.00 W/m2
18:44 45.0 °F 24.0 °F 30.4 in NE 3 mph 3 mph 44% 0.000 in 0.00 W/m2
18:49 45.0 °F 24.0 °F 30.4 in NE 2 mph 2 mph 45% 0.000 in 0.00 W/m2
18:54 44.0 °F 24.0 °F 30.4 in NNE 3 mph 3 mph 45% 0.000 in 0.00 W/m2
18:59 44.0 °F 24.0 °F 30.4 in NE 3 mph 4 mph 45% 0.000 in 0.00 W/m2
19:04 44.0 °F 24.0 °F 30.4 in NNE 4 mph 4 mph 46% 0.000 in 0.00 W/m2
19:09 44.0 °F 24.0 °F 30.4 in NNE 5 mph 5 mph 46% 0.000 in 0.00 W/m2
19:14 44.0 °F 24.0 °F 30.4 in NNE 5 mph 5 mph 46% 0.000 in 0.00 W/m2
19:19 43.0 °F 24.0 °F 30.4 in NNE 4 mph 5 mph 47% 0.000 in 0.00 W/m2
19:24 43.0 °F 24.0 °F 30.4 in NNE 5 mph 5 mph 47% 0.000 in 0.00 W/m2
19:29 43.0 °F 24.0 °F 30.4 in NNE 4 mph 5 mph 47% 0.000 in 0.00 W/m2
19:34 43.0 °F 24.0 °F 30.4 in NNE 4 mph 4 mph 47% 0.000 in 0.00 W/m2
19:39 43.0 °F 24.0 °F 30.4 in NNE 4 mph 4 mph 48% 0.000 in 0.00 W/m2
19:44 43.0 °F 24.0 °F 30.4 in NNE 4 mph 4 mph 48% 0.000 in 0.00 W/m2
19:49 42.0 °F 24.0 °F 30.4 in NNE 4 mph 4 mph 48% 0.000 in 0.00 W/m2
19:54 42.0 °F 24.0 °F 30.4 in NNE 4 mph 4 mph 48% 0.000 in 0.00 W/m2
19:59 42.0 °F 24.0 °F 30.4 in NNE 4 mph 4 mph 49% 0.000 in 0.00 W/m2
20:04 42.0 °F 24.0 °F 30.4 in NNE 4 mph 4 mph 49% 0.000 in 0.00 W/m2
20:09 42.0 °F 24.0 °F 30.4 in NNE 4 mph 4 mph 49% 0.000 in 0.00 W/m2
20:14 42.0 °F 24.0 °F 30.4 in NNE 4 mph 4 mph 49% 0.000 in 0.00 W/m2
20:19 42.0 °F 24.0 °F 30.4 in NNE 4 mph 4 mph 50% 0.000 in 0.00 W/m2
20:24 42.0 °F 24.0 °F 30.4 in NNE 3 mph 4 mph 50% 0.000 in 0.00 W/m2
20:29 41.0 °F 24.0 °F 30.4 in NNE 3 mph 3 mph 50% 0.000 in 0.00 W/m2
20:34 41.0 °F 24.0 °F 30.4 in NNE 4 mph 4 mph 50% 0.000 in 0.00 W/m2
20:39 41.0 °F 24.0 °F 30.4 in NNE 4 mph 5 mph 50% 0.000 in 0.00 W/m2
20:44 41.0 °F 24.0 °F 30.4 in NNE 3 mph 5 mph 50% 0.000 in 0.00 W/m2
20:49 41.0 °F 24.0 °F 30.4 in NE 4 mph 5 mph 51% 0.000 in 0.00 W/m2
20:54 41.0 °F 24.0 °F 30.4 in NE 3 mph 3 mph 51% 0.000 in 0.00 W/m2
20:59 41.0 °F 24.0 °F 30.4 in NE 3 mph 3 mph 51% 0.000 in 0.00 W/m2
21:04 41.0 °F 24.0 °F 30.4 in NE 3 mph 3 mph 51% 0.000 in 0.00 W/m2
21:09 41.0 °F 24.0 °F 30.4 in NE 3 mph 3 mph 52% 0.000 in 0.00 W/m2
21:14 41.0 °F 24.0 °F 30.4 in NE 3 mph 3 mph 52% 0.000 in 0.00 W/m2
21:19 41.0 °F 25.0 °F 30.4 in NE 2 mph 2 mph 53% 0.000 in 0.00 W/m2
21:24 40.0 °F 25.0 °F 30.4 in NE 3 mph 3 mph 54% 0.000 in 0.00 W/m2
21:29 40.0 °F 25.0 °F 30.4 in NE 2 mph 2 mph 54% 0.000 in 0.00 W/m2
21:34 40.0 °F 25.0 °F 30.4 in NE 3 mph 3 mph 55% 0.000 in 0.00 W/m2
21:39 40.0 °F 25.0 °F 30.4 in NE 2 mph 2 mph 55% 0.000 in 0.00 W/m2
21:44 40.0 °F 25.0 °F 30.4 in NE 2 mph 3 mph 56% 0.000 in 0.00 W/m2
21:49 39.0 °F 25.0 °F 30.4 in NE 3 mph 4 mph 56% 0.000 in 0.00 W/m2
21:54 39.0 °F 25.0 °F 30.4 in NE 3 mph 4 mph 56% 0.000 in 0.00 W/m2
21:59 39.0 °F 25.0 °F 30.4 in NE 3 mph 3 mph 57% 0.000 in 0.00 W/m2
22:04 39.0 °F 25.0 °F 30.4 in NE 2 mph 2 mph 57% 0.000 in 0.00 W/m2
22:09 39.0 °F 25.0 °F 30.4 in NE 2 mph 2 mph 57% 0.000 in 0.00 W/m2
22:14 39.0 °F 25.0 °F 30.4 in ENE 3 mph 3 mph 57% 0.000 in 0.00 W/m2
22:19 39.0 °F 25.0 °F 30.4 in NE 3 mph 4 mph 57% 0.000 in 0.00 W/m2
22:24 39.0 °F 25.0 °F 30.4 in NE 3 mph 4 mph 58% 0.000 in 0.00 W/m2
22:29 38.0 °F 25.0 °F 30.4 in NE 6 mph 6 mph 58% 0.000 in 0.00 W/m2
22:34 38.0 °F 25.0 °F 30.4 in NE 5 mph 5 mph 58% 0.000 in 0.00 W/m2
22:39 38.0 °F 25.0 °F 30.4 in NE 4 mph 5 mph 58% 0.000 in 0.00 W/m2
22:44 38.0 °F 25.0 °F 30.4 in NE 6 mph 6 mph 58% 0.000 in 0.00 W/m2
22:49 38.0 °F 25.0 °F 30.4 in NE 5 mph 5 mph 59% 0.000 in 0.00 W/m2
22:54 38.0 °F 25.0 °F 30.4 in NE 4 mph 5 mph 59% 0.000 in 0.00 W/m2
22:59 38.0 °F 25.0 °F 30.4 in NE 4 mph 4 mph 59% 0.000 in 0.00 W/m2
23:04 38.0 °F 25.0 °F 30.4 in NE 3 mph 4 mph 59% 0.000 in 0.00 W/m2
23:09 38.0 °F 25.0 °F 30.4 in NE 3 mph 3 mph 60% 0.000 in 0.00 W/m2
23:14 38.0 °F 25.0 °F 30.4 in NE 4 mph 4 mph 60% 0.000 in 0.00 W/m2
23:19 37.0 °F 25.0 °F 30.4 in NNE 4 mph 5 mph 60% 0.000 in 0.00 W/m2
23:24 37.0 °F 25.0 °F 30.4 in NE 4 mph 5 mph 60% 0.000 in 0.00 W/m2
23:29 37.0 °F 24.0 °F 30.4 in NE 4 mph 4 mph 60% 0.000 in 0.00 W/m2
23:34 37.0 °F 25.0 °F 30.4 in NE 5 mph 5 mph 61% 0.000 in 0.00 W/m2
23:39 37.0 °F 25.0 °F 30.4 in NE 4 mph 5 mph 61% 0.000 in 0.00 W/m2
23:44 37.0 °F 25.0 °F 30.4 in NE 4 mph 5 mph 61% 0.000 in 0.00 W/m2
23:49 37.0 °F 24.0 °F 30.4 in NE 3 mph 4 mph 61% 0.000 in 0.00 W/m2
23:54 37.0 °F 24.0 °F 30.4 in ENE 4 mph 4 mph 61% 0.000 in 0.00 W/m2
23:59 37.0 °F 24.0 °F 30.4 in NE 5 mph 5 mph 61% 0.000 in 0.00 W/m2
Villages of Bridgestone, Spring, TX USA
Compliments of Weather Underground - 4 mb